Portada
METAR-TAF:

METAR-TAF

Aeroports :

Nijni Nóvgorod, Rússia

latitud: 56-19-48N, longitud: 044-00E, altitud: 78 m

Observació

L'informe es va fer fa 16 minuts, a les 07:00 UTC
Vent 10 kt del Sud-Oest
Temperatura 17°C
Humitat 88%
Pressió 1009 hPa
Visibilitat: 9000 m
Cel ennuvolat a una alçada de 1300 ft, Cumulonimbus.
xàfecs de pluja

METAR: UWGG 200700Z 22005MPS 9000 -SHRA BKN013CB 17/15 Q1009 R18L/290050 NOSIG

Hora: 10:16 (07:16 UTC)

Pronòstic

L'informe es va fer fa 2 hores i 26 minuts, a les 04:50 UTC
Pronòstic vàlid del 20 a les 06 UTC al 21 a les 06 UTC
Vent 6 kt del Sud
Visibilitat: 6000 m
Núvols disperses a una alçada de 1500 ft
Temporalment
l' 20 a les 06 UTC al 20 a les 21 UTC
Vent 12 kt del Sud/Sud-Oest amb ràfegues de 27 kt
Visibilitat: 4000 m
Cel ennuvolat a una alçada de 1100 ft, Cumulonimbus.
xàfecs de pluja

TAF: UWGG 200450Z 2006/2106 19003MPS 6000 SCT015 TX20/2015Z TN14/2103Z TEMPO 2006/2021 20006G14MPS 4000 -SHRA BKN011CB

Observacions i pronòstics meteorològics de més de 4000 aeroports (METAR i TAF).

Les estacions disponibles són els punts grocs i vermells al mapa.

Posi el ratolí al punt desitjat per veure el nom de l'estació.

Feu clic per veure les observacions i els pronòstics meteorològics.

Per canviar el mapa: feu clic els botons verds amb una creu de color negre per apropar; al botó verd amb un guió per allunyar la imatge; o en les fletxes verdes per a mapes adjacents.


METAR-TAF: